Time;durP1;ratioP1;P1;durP2;ratioP2;P2;SDS_P1;SDS_P2;PMS_P1;PMS_P2;Temp;Humidity;BMP_temperature;BMP_pressure;BME280_temperature;BME280_humidity;BME280_pressure;Samples;Min_cycle;Max_cycle;Signal;HPM_P1;HPM_P2
2024/01/04 00:02:06;;;;;;;1.40;0.40;;;;;;;8.62;73.09;95158.63;4979935;28;20447;-86
2024/01/04 00:04:34;;;;;;;1.23;0.70;;;;;;;8.63;72.83;95157.63;4979218;28;20047;-80
2024/01/04 00:07:01;;;;;;;1.75;0.40;;;;;;;8.64;72.98;95161.03;4979451;28;20046;-86
2024/01/04 00:09:29;;;;;;;2.40;1.05;;;;;;;8.62;72.87;95153.44;4978996;28;20050;-81
2024/01/04 00:11:56;;;;;;;4.38;0.40;;;;;;;8.62;73.47;95150.84;4978683;28;20469;-79
2024/01/04 00:14:24;;;;;;;1.25;0.40;;;;;;;8.62;73.64;95158.63;4978667;28;20055;-87
2024/01/04 00:16:53;;;;;;;2.00;0.63;;;;;;;8.61;73.84;95151.03;4978340;28;20133;-86
2024/01/04 00:19:20;;;;;;;0.57;0.20;;;;;;;8.63;73.78;95167.22;4980333;28;20420;-87
2024/01/04 00:21:48;;;;;;;1.63;0.40;;;;;;;8.63;74.01;95167.22;4980735;28;20054;-87
2024/01/04 00:24:16;;;;;;;1.08;0.30;;;;;;;8.65;74.09;95165.22;4980990;28;20065;-88
2024/01/04 00:26:43;;;;;;;2.65;0.40;;;;;;;8.64;73.66;95164.44;4981525;28;20117;-88
2024/01/04 00:29:11;;;;;;;0.80;0.47;;;;;;;8.63;73.93;95170.63;4982158;28;20054;-89
2024/01/04 00:31:39;;;;;;;1.80;0.30;;;;;;;8.62;73.66;95153.44;4981290;28;20129;-83
2024/01/04 00:34:08;;;;;;;1.52;0.60;;;;;;;8.61;74.25;95162.22;4980708;28;20082;-88
2024/01/04 00:36:36;;;;;;;4.88;0.30;;;;;;;8.60;74.46;95155.44;4979926;28;20053;-86
2024/01/04 00:39:04;;;;;;;1.17;0.40;;;;;;;8.59;74.19;95161.66;4981150;28;20073;-88
2024/01/04 00:41:31;;;;;;;1.67;0.55;;;;;;;8.58;73.67;95167.03;4980588;28;20055;-87
2024/01/04 00:43:59;;;;;;;1.23;0.30;;;;;;;8.56;74.01;95172.44;4981118;28;20053;-88
2024/01/04 00:46:27;;;;;;;1.55;0.52;;;;;;;8.56;73.77;95174.25;4981390;28;20082;-88
2024/01/04 00:48:55;;;;;;;1.52;0.38;;;;;;;8.54;73.68;95174.44;4980233;28;20097;-81
2024/01/04 00:51:38;;;;;;;0.52;0.30;;;;;;;8.53;74.30;95175.47;5093423;27;20370;-87
2024/01/04 00:54:05;;;;;;;3.03;0.65;;;;;;;8.52;73.92;95171.25;5093180;28;20072;-79
2024/01/04 00:56:34;;;;;;;1.25;0.38;;;;;;;8.50;73.88;95175.06;5093315;28;20120;-88
2024/01/04 00:59:02;;;;;;;3.45;0.80;;;;;;;8.47;74.19;95178.06;5093302;28;20048;-87
2024/01/04 01:01:30;;;;;;;1.70;0.60;;;;;;;8.46;74.78;95198.03;5092951;28;20111;-88
2024/01/04 01:03:58;;;;;;;1.00;0.38;;;;;;;8.45;74.88;95191.25;5093083;28;20060;-81
2024/01/04 01:06:25;;;;;;;1.65;0.38;;;;;;;8.44;75.48;95194.88;5093270;28;20135;-82
2024/01/04 01:08:54;;;;;;;1.90;0.40;;;;;;;8.45;75.31;95214.66;5092966;28;20049;-83
2024/01/04 01:11:22;;;;;;;3.97;1.08;;;;;;;8.43;75.48;95211.44;5092670;28;20044;-86
2024/01/04 01:13:50;;;;;;;0.90;0.30;;;;;;;8.42;75.93;95217.66;5092305;28;20451;-84
2024/01/04 01:16:17;;;;;;;1.38;0.50;;;;;;;8.41;76.05;95209.03;5093039;28;20075;-84
2024/01/04 01:18:45;;;;;;;2.20;0.32;;;;;;;8.41;76.40;95197.84;5092568;28;20059;-89
2024/01/04 01:21:13;;;;;;;1.70;0.52;;;;;;;8.41;76.54;95205.66;5091555;28;20044;-90
2024/01/04 01:23:41;;;;;;;2.95;0.70;;;;;;;8.42;77.24;95202.88;5095024;28;20051;-87
2024/01/04 01:26:10;;;;;;;2.33;0.65;;;;;;;8.43;77.30;95212.25;5094708;28;20102;-83
2024/01/04 01:28:37;;;;;;;0.30;0.10;;;;;;;8.44;76.96;95218.25;5094869;28;20044;-89
2024/01/04 01:31:05;;;;;;;3.00;0.88;;;;;;;8.45;76.69;95217.25;5093948;28;20130;-89
2024/01/04 01:33:32;;;;;;;1.17;0.40;;;;;;;8.44;76.05;95220.88;5093599;28;20052;-89
2024/01/04 01:36:02;;;;;;;0.40;0.30;;;;;;;8.44;75.50;95233.84;5093494;28;20086;-86
2024/01/04 01:38:29;;;;;;;1.23;0.50;;;;;;;8.40;75.88;95214.44;5093315;28;20106;-88
2024/01/04 01:40:58;;;;;;;4.55;1.05;;;;;;;8.42;76.43;95225.47;5093500;28;20483;-87
2024/01/04 01:43:31;;;;;;;1.27;0.40;;;;;;;8.40;76.25;95217.84;5092868;28;20348;-85
2024/01/04 01:45:59;;;;;;;1.58;0.30;;;;;;;8.41;76.07;95214.25;5092095;28;20131;-88
2024/01/04 01:48:27;;;;;;;1.77;0.70;;;;;;;8.37;76.21;95214.81;5092835;28;20055;-80
2024/01/04 01:50:55;;;;;;;2.08;0.35;;;;;;;8.38;77.26;95219.03;5092362;28;20098;-82
2024/01/04 01:53:24;;;;;;;1.05;0.57;;;;;;;8.39;77.16;95216.22;5091977;28;20499;-82
2024/01/04 01:55:51;;;;;;;0.70;0.20;;;;;;;8.37;77.43;95222.63;5091686;28;20052;-81
2024/01/04 01:58:21;;;;;;;2.15;0.40;;;;;;;8.36;77.28;95232.22;5091931;28;20464;-79
2024/01/04 02:00:50;;;;;;;2.15;0.60;;;;;;;8.34;77.11;95236.81;5090880;28;20131;-89
2024/01/04 02:03:18;;;;;;;1.60;0.40;;;;;;;8.31;77.26;95229.44;5077396;28;20052;-86
2024/01/04 02:05:46;;;;;;;1.35;0.40;;;;;;;8.30;77.57;95233.00;5077669;28;20222;-88
2024/01/04 02:08:14;;;;;;;3.30;0.70;;;;;;;8.31;77.76;95246.78;5077697;28;20044;-81
2024/01/04 02:10:42;;;;;;;2.33;0.52;;;;;;;8.31;77.82;95239.00;5077681;28;20109;-78
2024/01/04 02:13:10;;;;;;;3.78;0.75;;;;;;;8.30;77.99;95240.00;5076926;28;20049;-82
2024/01/04 02:15:37;;;;;;;4.00;1.10;;;;;;;8.28;78.33;95247.22;5078375;28;20473;-86
2024/01/04 02:18:07;;;;;;;4.07;0.50;;;;;;;8.28;78.31;95263.59;5079832;28;20075;-86
2024/01/04 02:20:35;;;;;;;2.35;0.45;;;;;;;8.27;77.92;95263.81;5080563;28;20139;-86
2024/01/04 02:23:04;;;;;;;1.33;0.40;;;;;;;8.20;78.36;95258.63;5079343;28;20468;-85
2024/01/04 02:25:31;;;;;;;3.72;0.32;;;;;;;8.18;78.66;95256.22;5080903;28;20131;-86
2024/01/04 02:27:59;;;;;;;1.33;0.43;;;;;;;8.18;78.88;95255.41;5080169;28;20072;-90
2024/01/04 02:30:26;;;;;;;2.92;0.32;;;;;;;8.18;79.21;95256.22;5079487;28;20051;-89
2024/01/04 02:32:54;;;;;;;4.25;1.00;;;;;;;8.20;79.40;95259.41;5078809;28;20132;-88
2024/01/04 02:35:22;;;;;;;2.95;0.50;;;;;;;8.22;78.87;95262.59;5079641;28;20056;-83
2024/01/04 02:37:50;;;;;;;1.42;0.40;;;;;;;8.21;78.92;95261.00;5079995;28;20068;-86
2024/01/04 02:40:19;;;;;;;2.00;0.52;;;;;;;8.21;78.84;95263.59;5079538;28;20140;-89
2024/01/04 02:42:47;;;;;;;0.93;0.47;;;;;;;8.20;78.54;95269.78;5078674;28;20143;-88
2024/01/04 02:45:16;;;;;;;2.13;0.30;;;;;;;8.19;78.36;95265.59;5078634;28;20048;-88
2024/01/04 02:47:43;;;;;;;1.10;0.30;;;;;;;8.15;77.54;95272.16;5080119;28;20056;-89
2024/01/04 02:50:13;;;;;;;3.40;0.55;;;;;;;8.13;77.99;95279.38;5080981;28;20412;-88
2024/01/04 02:52:40;;;;;;;1.13;0.50;;;;;;;8.12;78.25;95285.56;5080598;28;20087;-86
2024/01/04 02:55:09;;;;;;;2.03;0.30;;;;;;;8.11;77.59;95283.97;5079666;28;20131;-90
2024/01/04 02:57:37;;;;;;;2.75;0.40;;;;;;;8.09;77.61;95265.19;5079971;28;20076;-88
2024/01/04 03:00:07;;;;;;;1.10;0.20;;;;;;;8.08;77.39;95291.34;5079365;28;20131;-88
2024/01/04 03:02:35;;;;;;;3.38;0.55;;;;;;;8.06;77.38;95281.16;5079121;28;20051;-87
2024/01/04 03:05:02;;;;;;;0.40;0.10;;;;;;;8.04;76.85;95281.34;5078728;28;20105;-86
2024/01/04 03:07:31;;;;;;;0.80;0.20;;;;;;;8.04;76.96;95296.13;5079000;28;20139;-88
2024/01/04 03:10:00;;;;;;;0.30;0.10;;;;;;;8.01;76.61;95299.16;5078742;28;20094;-86
2024/01/04 03:12:28;;;;;;;0.75;0.13;;;;;;;8.01;77.13;95299.16;5077960;28;20040;-84
2024/01/04 03:14:58;;;;;;;0.75;0.10;;;;;;;8.01;76.73;95310.31;5076664;28;20063;-88
2024/01/04 03:17:26;;;;;;;0.30;0.10;;;;;;;8.03;77.46;95304.94;5078246;28;20056;-85
2024/01/04 03:19:54;;;;;;;2.30;0.35;;;;;;;8.02;76.81;95311.13;5078599;28;20044;-90
2024/01/04 03:22:22;;;;;;;0.40;0.20;;;;;;;7.99;76.34;95303.72;5077910;28;20060;-90
2024/01/04 03:24:49;;;;;;;1.73;0.10;;;;;;;7.96;76.62;95307.53;5078095;28;20053;-83
2024/01/04 03:27:17;;;;;;;0.15;0.13;;;;;;;7.96;76.22;95304.09;5078414;28;20064;-88
2024/01/04 03:29:45;;;;;;;1.40;0.13;;;;;;;7.92;75.53;95313.31;5079278;28;20116;-88
2024/01/04 03:32:14;;;;;;;1.63;0.13;;;;;;;7.92;76.21;95308.13;5078512;28;20413;-90
2024/01/04 03:34:41;;;;;;;0.10;0.10;;;;;;;7.92;76.59;95300.34;5078292;28;20128;-88
2024/01/04 03:37:09;;;;;;;0.43;0.13;;;;;;;7.91;76.14;95299.50;5077802;28;20122;-89
2024/01/04 03:39:36;;;;;;;1.00;0.30;;;;;;;7.90;75.96;95294.53;5077670;28;20479;-85
2024/01/04 03:42:05;;;;;;;0.75;0.10;;;;;;;7.89;75.48;95295.50;5077153;28;20135;-87
2024/01/04 03:44:32;;;;;;;0.35;0.13;;;;;;;7.86;75.45;95312.28;5076945;28;20060;-83
2024/01/04 03:47:00;;;;;;;0.45;0.25;;;;;;;7.82;75.10;95303.28;5076777;28;20052;-78
2024/01/04 03:49:29;;;;;;;0.57;0.20;;;;;;;7.79;75.05;95301.09;5076617;28;20135;-81
2024/01/04 03:51:57;;;;;;;1.08;0.20;;;;;;;7.78;75.31;95292.50;5076231;28;20101;-79
2024/01/04 03:54:24;;;;;;;1.42;0.25;;;;;;;7.80;75.99;95313.06;5075713;28;20055;-86
2024/01/04 03:56:52;;;;;;;0.95;0.32;;;;;;;7.81;75.68;95305.09;5076037;28;20055;-88
2024/01/04 03:59:20;;;;;;;1.42;0.68;;;;;;;7.81;75.53;95304.28;5076117;28;20048;-80
2024/01/04 04:01:48;;;;;;;0.57;0.17;;;;;;;7.80;75.13;95306.06;5075686;28;20123;-83
2024/01/04 04:04:16;;;;;;;0.77;0.15;;;;;;;7.79;75.32;95298.50;5075864;28;20048;-87
2024/01/04 04:06:45;;;;;;;0.15;0.10;;;;;;;7.77;75.99;95316.84;5075329;28;20048;-87
2024/01/04 04:09:13;;;;;;;0.08;0.00;;;;;;;7.77;75.70;95316.06;5075579;28;20098;-79
2024/01/04 04:11:40;;;;;;;0.10;0.10;;;;;;;7.77;76.09;95327.25;5075072;28;20090;-88
2024/01/04 04:14:09;;;;;;;0.20;0.10;;;;;;;7.78;75.49;95326.25;5075267;28;20052;-79
2024/01/04 04:16:40;;;;;;;0.55;0.20;;;;;;;7.78;75.36;95333.22;5075977;28;20087;-79
2024/01/04 04:19:08;;;;;;;1.17;0.10;;;;;;;7.75;75.12;95321.44;5075495;28;20044;-86
2024/01/04 04:21:36;;;;;;;0.70;0.10;;;;;;;7.73;75.13;95326.03;5074960;28;20113;-83
2024/01/04 04:24:06;;;;;;;0.30;0.00;;;;;;;7.72;75.66;95340.00;5075557;28;20048;-81
2024/01/04 04:26:34;;;;;;;2.75;0.30;;;;;;;7.70;75.40;95351.59;5075239;28;20071;-86
2024/01/04 04:29:02;;;;;;;0.90;0.20;;;;;;;7.68;76.08;95348.38;5074897;28;20055;-82
2024/01/04 04:31:29;;;;;;;1.88;0.10;;;;;;;7.69;77.01;95335.19;5074260;28;20575;-79
2024/01/04 04:33:57;;;;;;;0.13;0.10;;;;;;;7.72;76.79;95345.22;5076680;28;20140;-84
2024/01/04 04:36:24;;;;;;;2.25;0.22;;;;;;;7.71;76.99;95350.59;5089091;28;20075;-86
2024/01/04 04:38:52;;;;;;;0.13;0.13;;;;;;;7.70;77.04;95336.81;5084626;28;20052;-87
2024/01/04 04:41:21;;;;;;;0.52;0.40;;;;;;;7.67;76.95;95339.78;5076483;28;20387;-86
2024/01/04 04:43:49;;;;;;;0.00;0.00;;;;;;;7.67;77.17;95352.75;5075823;28;20553;-86
2024/01/04 04:46:18;;;;;;;1.35;0.10;;;;;;;7.68;77.40;95362.16;5076693;28;20139;-87
2024/01/04 04:48:46;;;;;;;0.45;0.30;;;;;;;7.66;77.79;95356.34;5076320;28;20135;-89
2024/01/04 04:51:14;;;;;;;2.20;0.80;;;;;;;7.62;77.45;95366.31;5075795;28;20056;-86
2024/01/04 04:53:41;;;;;;;0.35;0.10;;;;;;;7.61;77.88;95364.72;5075718;28;20055;-89
2024/01/04 04:56:09;;;;;;;0.03;0.00;;;;;;;7.61;77.61;95361.34;5075101;28;20053;-87
2024/01/04 04:58:38;;;;;;;0.47;0.20;;;;;;;7.62;78.07;95361.13;5075317;28;20049;-90
2024/01/04 05:01:06;;;;;;;1.77;0.70;;;;;;;7.62;77.88;95373.31;5074417;28;20124;-87
2024/01/04 05:03:33;;;;;;;0.85;0.40;;;;;;;7.62;77.92;95370.72;5074629;28;20045;-89
2024/01/04 05:06:01;;;;;;;1.08;0.20;;;;;;;7.63;78.05;95373.13;5074382;28;20414;-87
2024/01/04 05:08:29;;;;;;;0.50;0.13;;;;;;;7.63;78.44;95378.31;5074035;28;20045;-86
2024/01/04 05:10:57;;;;;;;0.68;0.35;;;;;;;7.66;78.43;95371.13;5074787;28;20044;-87
2024/01/04 05:13:24;;;;;;;0.43;0.10;;;;;;;7.67;78.63;95383.91;5074249;28;20527;-86
2024/01/04 05:15:53;;;;;;;1.20;0.35;;;;;;;7.67;78.32;95383.91;5074458;28;20570;-89
2024/01/04 05:18:21;;;;;;;2.67;0.47;;;;;;;7.66;78.76;95392.69;5074761;28;20045;-87
2024/01/04 05:20:49;;;;;;;1.35;0.38;;;;;;;7.66;78.61;95390.09;5074214;28;20048;-86
2024/01/04 05:23:17;;;;;;;1.30;0.32;;;;;;;7.65;78.59;95385.88;5074187;28;20059;-88
2024/01/04 05:25:45;;;;;;;0.30;0.20;;;;;;;7.65;78.78;95391.06;5074436;28;20466;-86
2024/01/04 05:28:13;;;;;;;3.30;0.38;;;;;;;7.64;78.58;95407.66;5074415;28;20140;-90
2024/01/04 05:30:41;;;;;;;0.80;0.10;;;;;;;7.62;78.68;95391.47;5074511;28;20314;-84
2024/01/04 05:33:10;;;;;;;1.30;0.40;;;;;;;7.63;79.55;95404.28;5073792;28;20108;-88
2024/01/04 05:35:38;;;;;;;2.17;0.47;;;;;;;7.64;79.15;95405.84;5074242;28;20050;-84
2024/01/04 05:38:06;;;;;;;1.17;0.10;;;;;;;7.64;78.95;95412.84;5078337;28;20048;-89
2024/01/04 05:40:33;;;;;;;2.53;0.65;;;;;;;7.64;79.09;95405.06;5078941;28;20168;-89
2024/01/04 05:43:01;;;;;;;0.35;0.13;;;;;;;7.66;79.18;95420.44;5079234;28;20098;-88
2024/01/04 05:45:28;;;;;;;1.63;0.45;;;;;;;7.67;79.03;95409.84;5079847;28;20048;-88
2024/01/04 05:47:56;;;;;;;1.90;0.30;;;;;;;7.68;79.44;95428.84;5060753;28;20132;-89
2024/01/04 05:50:25;;;;;;;0.47;0.20;;;;;;;7.68;79.43;95436.63;5069272;28;20041;-85
2024/01/04 05:52:55;;;;;;;1.05;0.17;;;;;;;7.69;79.13;95439.00;5078099;28;20102;-88
2024/01/04 05:55:23;;;;;;;0.38;0.20;;;;;;;7.67;79.01;95430.63;5071918;28;20041;-87
2024/01/04 05:57:51;;;;;;;0.70;0.40;;;;;;;7.65;79.04;95458.56;5070956;28;20069;-86
2024/01/04 06:00:18;;;;;;;0.30;0.15;;;;;;;7.68;79.43;95449.63;5072431;28;20522;-88
2024/01/04 06:02:47;;;;;;;0.57;0.10;;;;;;;7.67;79.05;95456.56;5069459;28;20053;-88
2024/01/04 06:05:15;;;;;;;0.50;0.22;;;;;;;7.68;79.10;95478.16;5074520;28;20060;-86
2024/01/04 06:07:44;;;;;;;1.90;0.20;;;;;;;7.66;79.24;95460.19;5060278;28;20102;-79
2024/01/04 06:10:12;;;;;;;0.63;0.28;;;;;;;7.66;79.29;95474.97;5060116;28;20052;-81
2024/01/04 06:12:40;;;;;;;1.95;0.60;;;;;;;7.64;79.43;95477.72;5058046;28;20049;-85
2024/01/04 06:15:09;;;;;;;2.03;0.52;;;;;;;7.63;79.44;95476.13;5071480;28;20132;-85
2024/01/04 06:17:37;;;;;;;2.20;0.30;;;;;;;7.61;79.41;95484.13;5077794;28;20532;-82
2024/01/04 06:20:06;;;;;;;1.75;0.25;;;;;;;7.60;79.46;95497.28;5078184;28;20106;-84
2024/01/04 06:22:33;;;;;;;0.65;0.10;;;;;;;7.57;79.04;95487.28;5078264;28;20049;-87
2024/01/04 06:25:02;;;;;;;0.95;0.10;;;;;;;7.54;79.04;95492.84;5079181;28;20053;-85
2024/01/04 06:27:30;;;;;;;0.60;0.60;;;;;;;7.54;79.68;95492.84;5079675;28;20415;-80
2024/01/04 06:29:57;;;;;;;0.68;0.13;;;;;;;7.54;79.54;95498.84;5064422;28;20057;-86
2024/01/04 06:32:25;;;;;;;1.92;0.55;;;;;;;7.53;79.19;95501.63;5056989;28;20057;-79
2024/01/04 06:34:53;;;;;;;2.88;0.40;;;;;;;7.52;79.39;95506.00;5056633;28;20515;-79
2024/01/04 06:37:20;;;;;;;1.67;0.30;;;;;;;7.53;79.39;95501.63;5056443;28;20053;-83
2024/01/04 06:39:49;;;;;;;1.23;0.70;;;;;;;7.54;79.07;95518.78;5056606;28;20136;-84
2024/01/04 06:42:20;;;;;;;0.68;0.50;;;;;;;7.52;79.08;95525.94;5056239;28;20048;-81
2024/01/04 06:44:48;;;;;;;1.30;0.60;;;;;;;7.50;78.80;95520.16;5056851;28;20045;-83
2024/01/04 06:47:15;;;;;;;0.57;0.40;;;;;;;7.49;78.76;95528.94;5057331;28;20059;-83
2024/01/04 06:49:43;;;;;;;0.73;0.73;;;;;;;7.48;79.07;95527.31;5059355;28;20132;-81
2024/01/04 06:52:11;;;;;;;1.73;0.28;;;;;;;7.45;78.57;95527.69;5059835;28;20106;-80
2024/01/04 06:54:39;;;;;;;1.00;0.30;;;;;;;7.39;78.43;95540.44;5059753;28;20500;-83
2024/01/04 06:57:07;;;;;;;0.47;0.40;;;;;;;7.38;78.77;95551.81;5060237;28;20136;-82
2024/01/04 06:59:36;;;;;;;1.35;0.40;;;;;;;7.34;79.25;95544.59;5060504;28;20045;-82
2024/01/04 07:02:04;;;;;;;0.85;0.30;;;;;;;7.32;79.70;95534.38;5059978;28;20083;-82
2024/01/04 23:19:17;;;;;;;7.07;2.88;;;;;;;6.37;70.53;95781.53;5489531;23;20527;-78
2024/01/04 23:21:45;;;;;;;5.40;1.77;;;;;;;6.38;70.68;95767.59;4998622;28;20050;-78
2024/01/04 23:24:13;;;;;;;5.70;2.00;;;;;;;6.35;70.47;95762.75;4995464;28;20078;-77
2024/01/04 23:26:41;;;;;;;5.68;2.28;;;;;;;6.33;70.51;95757.75;4995245;28;20157;-77
2024/01/04 23:29:10;;;;;;;5.13;2.22;;;;;;;6.30;70.57;95760.69;4994778;28;20120;-77
2024/01/04 23:31:37;;;;;;;4.03;1.70;;;;;;;6.27;70.68;95758.44;4993614;28;20054;-77
